Time;durP1;ratioP1;P1;durP2;ratioP2;P2;SDS_P1;SDS_P2;PMS_P1;PMS_P2;Temp;Humidity;BMP_temperature;BMP_pressure;BME280_temperature;BME280_humidity;BME280_pressure;Samples;Min_cycle;Max_cycle;Signal;HPM_P1;HPM_P2
2023/03/16 00:09:19;;;;;;;2.40;1.27;;;;;;;-1.63;100.00;97979.88;22063244;27;20451;-57
2023/03/16 00:19:21;;;;;;;2.57;1.60;;;;;;;-1.70;100.00;97978.94;22062811;27;20033;-56
2023/03/16 00:29:24;;;;;;;2.40;1.20;;;;;;;-1.72;100.00;97975.66;22062458;27;20058;-56
2023/03/16 00:39:26;;;;;;;4.40;1.47;;;;;;;-1.70;100.00;97984.25;22062392;27;20029;-56
2023/03/16 00:49:33;;;;;;;2.90;1.37;;;;;;;-1.75;100.00;97979.50;22062431;27;20032;-57
2023/03/16 00:59:36;;;;;;;1.87;1.00;;;;;;;-1.81;100.00;97977.59;22062349;27;20150;-56
2023/03/16 01:09:41;;;;;;;2.33;1.07;;;;;;;-1.90;100.00;97962.78;22042360;27;20409;-56
2023/03/16 01:19:44;;;;;;;2.33;1.37;;;;;;;-2.00;100.00;97952.47;22061408;27;20032;-56
2023/03/16 01:29:47;;;;;;;2.67;1.20;;;;;;;-2.05;100.00;97938.91;22061786;27;20396;-57
2023/03/16 01:39:49;;;;;;;2.60;1.30;;;;;;;-2.12;100.00;97941.47;22061623;27;20432;-56
2023/03/16 01:49:55;;;;;;;2.60;1.43;;;;;;;-2.16;100.00;97923.47;22041452;27;20031;-57
2023/03/16 02:00:17;;;;;;;2.43;1.43;;;;;;;-2.16;100.00;97921.66;22061426;27;20032;-55
2023/03/16 02:10:20;;;;;;;1.87;1.50;;;;;;;-2.22;100.00;97917.06;22061683;27;20404;-55
2023/03/16 02:20:33;;;;;;;2.00;1.50;;;;;;;-2.24;100.00;97922.53;22060809;27;20481;-56
2023/03/16 02:30:35;;;;;;;2.30;1.70;;;;;;;-2.31;100.00;97910.22;22061164;27;20017;-56
2023/03/16 02:40:38;;;;;;;3.40;2.00;;;;;;;-2.43;100.00;97902.72;22060898;27;20068;-57
2023/03/16 02:50:46;;;;;;;3.20;1.80;;;;;;;-2.46;100.00;97900.44;22063350;27;20021;-57
2023/03/16 03:00:48;;;;;;;2.93;1.43;;;;;;;-2.49;100.00;97906.09;22045321;27;20032;-57
2023/03/16 03:10:51;;;;;;;3.37;1.80;;;;;;;-2.52;100.00;97885.28;22064223;26;20062;-55
2023/03/16 03:20:53;;;;;;;3.07;1.53;;;;;;;-2.58;100.00;97876.25;22063467;27;20090;-57
2023/03/16 03:30:55;;;;;;;2.00;1.50;;;;;;;-2.64;100.00;97870.84;22064409;27;20435;-57
2023/03/16 03:40:58;;;;;;;2.67;1.60;;;;;;;-2.66;100.00;97862.25;22063514;27;20079;-54
2023/03/16 03:51:01;;;;;;;2.60;1.30;;;;;;;-2.65;100.00;97859.41;22043853;27;20017;-58
2023/03/16 04:01:04;;;;;;;1.70;1.40;;;;;;;-2.69;100.00;97858.13;22063112;27;20059;-57
2023/03/16 04:11:06;;;;;;;1.60;1.23;;;;;;;-2.73;100.00;97841.81;22062970;27;20402;-56
2023/03/16 04:21:15;;;;;;;3.03;1.20;;;;;;;-2.68;100.00;97853.69;22043600;27;20032;-56
2023/03/16 04:31:17;;;;;;;2.00;1.40;;;;;;;-2.70;100.00;97843.25;22043101;27;20025;-57
2023/03/16 04:41:20;;;;;;;2.00;1.03;;;;;;;-2.70;100.00;97845.09;22062713;27;20072;-57
2023/03/16 04:51:24;;;;;;;3.13;1.50;;;;;;;-2.72;100.00;97837.31;22062523;27;20052;-55
2023/03/16 05:01:28;;;;;;;3.33;1.70;;;;;;;-2.74;100.00;97839.31;22062144;26;20021;-56
2023/03/16 05:11:30;;;;;;;2.00;1.20;;;;;;;-2.73;100.00;97847.09;22061965;27;20401;-57
2023/03/16 05:21:36;;;;;;;3.10;1.93;;;;;;;-2.78;100.00;97844.16;22041873;27;20052;-56
2023/03/16 05:31:39;;;;;;;3.87;3.00;;;;;;;-2.87;100.00;97828.56;22062111;27;20020;-57
2023/03/16 05:41:42;;;;;;;3.80;1.50;;;;;;;-2.92;100.00;97835.19;22061766;27;20029;-55
2023/03/16 05:51:45;;;;;;;3.67;1.67;;;;;;;-2.94;100.00;97833.72;22061563;26;20099;-56
2023/03/16 06:01:49;;;;;;;2.20;1.27;;;;;;;-2.93;100.00;97835.38;22061397;27;20029;-56
2023/03/16 06:11:51;;;;;;;2.90;1.30;;;;;;;-2.84;100.00;97844.87;22061420;27;20080;-56
2023/03/16 06:21:53;;;;;;;1.93;1.10;;;;;;;-2.70;100.00;97832.66;22042413;27;20029;-56
2023/03/16 06:31:56;;;;;;;2.60;1.07;;;;;;;-2.51;100.00;97844.53;22046140;27;20026;-57
2023/03/16 06:41:59;;;;;;;1.40;1.00;;;;;;;-2.22;100.00;97841.09;22065215;27;20024;-57
2023/03/16 06:52:02;;;;;;;1.37;1.00;;;;;;;-1.77;100.00;97819.81;22064459;27;20075;-57
2023/03/16 07:02:05;;;;;;;3.47;1.87;;;;;;;-1.20;100.00;97826.06;22064281;27;20048;-56
2023/03/16 07:12:09;;;;;;;2.70;1.40;;;;;;;-0.64;100.00;97813.84;22064490;27;20025;-58
2023/03/16 07:22:11;;;;;;;1.80;1.23;;;;;;;-0.09;100.00;97795.31;22063777;27;20040;-57
2023/03/16 07:32:15;;;;;;;3.47;1.60;;;;;;;0.59;100.00;97785.69;22063757;27;20465;-57
2023/03/16 07:42:18;;;;;;;2.63;1.80;;;;;;;1.45;100.00;97773.34;22063202;27;20032;-57
2023/03/16 07:52:21;;;;;;;1.23;0.87;;;;;;;2.27;100.00;97786.16;22043974;27;20025;-57
2023/03/16 08:02:24;;;;;;;3.07;1.23;;;;;;;3.00;100.00;97806.22;22063120;27;20041;-57
2023/03/16 08:12:26;;;;;;;5.00;1.97;;;;;;;3.59;100.00;97820.09;22063145;27;20423;-56
2023/03/16 08:22:29;;;;;;;3.27;1.70;;;;;;;4.04;100.00;97795.72;22062335;27;20024;-57
2023/03/16 08:32:32;;;;;;;4.53;1.90;;;;;;;4.43;100.00;97791.91;22062783;27;20022;-56
2023/03/16 08:42:37;;;;;;;3.57;1.60;;;;;;;4.71;100.00;97784.13;22023699;27;20025;-58
2023/03/16 08:52:40;;;;;;;6.00;1.52;;;;;;;5.07;100.00;97794.88;22062520;27;20040;-57
2023/03/16 09:02:44;;;;;;;4.00;1.70;;;;;;;5.68;99.16;97798.16;22062057;27;20095;-58
2023/03/16 09:12:46;;;;;;;2.57;1.30;;;;;;;6.27;91.98;97781.13;22062017;27;20043;-56
2023/03/16 09:22:49;;;;;;;5.83;1.90;;;;;;;6.46;89.73;97778.28;22061969;27;20043;-56
2023/03/16 09:32:51;;;;;;;4.97;1.63;;;;;;;7.02;83.68;97767.66;22041494;27;20017;-56
2023/03/16 09:43:36;;;;;;;3.97;1.63;;;;;;;7.58;81.67;97748.84;22061862;27;20405;-57
2023/03/16 09:53:41;;;;;;;2.83;1.43;;;;;;;8.28;79.41;97747.25;22061868;27;20028;-56
2023/03/16 10:04:04;;;;;;;3.13;1.53;;;;;;;8.99;75.46;97734.75;22061664;27;20062;-56
2023/03/16 10:14:22;;;;;;;2.03;1.30;;;;;;;9.38;69.15;97747.97;22061448;27;20444;-56
2023/03/16 10:24:41;;;;;;;2.10;1.30;;;;;;;9.74;66.66;97737.34;22061201;27;20071;-57
2023/03/16 10:34:59;;;;;;;6.67;1.70;;;;;;;10.24;62.28;97734.31;22061133;27;20102;-56
2023/03/16 10:45:02;;;;;;;2.10;1.20;;;;;;;10.25;61.86;97735.91;22060735;27;20043;-57
2023/03/16 10:55:27;;;;;;;2.03;1.27;;;;;;;10.12;62.30;97721.03;22060646;27;20039;-56
2023/03/16 11:05:34;;;;;;;3.33;1.20;;;;;;;10.27;58.15;97717.56;22040596;27;20029;-58
2023/03/16 11:15:43;;;;;;;3.17;1.37;;;;;;;10.37;58.77;97725.72;22044517;27;20035;-57
2023/03/16 11:25:53;;;;;;;3.20;1.40;;;;;;;10.80;57.61;97712.00;22064018;27;20036;-57
2023/03/16 11:36:26;;;;;;;6.43;1.27;;;;;;;11.37;53.15;97696.47;22044624;27;20055;-57
2023/03/16 11:46:56;;;;;;;3.57;1.23;;;;;;;11.95;51.82;97700.66;22063814;27;20028;-57
2023/03/16 11:57:05;;;;;;;4.80;1.95;;;;;;;12.29;53.24;97694.50;22063741;27;20070;-56
2023/03/16 12:07:34;;;;;;;2.53;1.55;;;;;;;12.84;51.62;97683.53;22063535;27;20421;-55
2023/03/16 12:17:38;;;;;;;2.92;1.62;;;;;;;13.14;47.06;97673.50;22062293;26;20034;-57
2023/03/16 12:27:42;;;;;;;3.77;1.50;;;;;;;13.55;48.76;97671.22;22062935;27;20345;-57
2023/03/16 12:38:14;;;;;;;3.22;1.40;;;;;;;13.83;46.58;97654.31;22062639;27;20036;-57
2023/03/16 12:48:23;;;;;;;2.12;1.60;;;;;;;13.68;47.11;97642.50;22061553;27;20399;-57
2023/03/16 12:58:26;;;;;;;4.32;2.08;;;;;;;13.65;44.89;97636.84;22062523;27;20066;-56
2023/03/16 13:08:42;;;;;;;2.50;1.50;;;;;;;13.85;44.09;97630.34;22061602;27;20028;-56
2023/03/16 13:18:45;;;;;;;3.92;1.98;;;;;;;14.43;43.49;97621.09;22061699;27;20039;-55
2023/03/16 13:28:53;;;;;;;3.33;1.48;;;;;;;14.39;44.17;97614.63;22061620;27;20043;-56
2023/03/16 13:39:03;;;;;;;3.20;1.23;;;;;;;14.67;44.26;97603.88;22061992;27;20420;-57
2023/03/16 13:49:07;;;;;;;2.12;1.10;;;;;;;14.83;43.86;97602.50;22042156;27;20314;-57
2023/03/16 13:59:14;;;;;;;3.45;1.52;;;;;;;14.87;41.91;97597.25;22040907;27;20028;-55
2023/03/16 14:09:21;;;;;;;3.12;1.20;;;;;;;14.88;42.50;97585.25;22061091;26;20044;-57
2023/03/16 14:19:34;;;;;;;4.53;1.00;;;;;;;15.14;41.70;97591.00;22061024;27;20075;-57
2023/03/16 14:29:41;;;;;;;2.83;1.27;;;;;;;15.58;41.19;97564.25;22060914;27;20037;-57
2023/03/16 14:39:56;;;;;;;4.68;1.00;;;;;;;15.82;39.23;97569.50;22040696;27;20056;-57
2023/03/16 14:50:07;;;;;;;2.00;1.10;;;;;;;16.18;41.19;97556.97;22044792;27;20025;-56
2023/03/16 15:00:14;;;;;;;2.15;1.23;;;;;;;16.54;40.94;97554.16;22065330;27;20024;-57
2023/03/16 15:10:28;;;;;;;1.83;1.02;;;;;;;16.20;39.44;97547.34;22064448;27;20082;-56
2023/03/16 15:20:40;;;;;;;2.03;0.77;;;;;;;16.24;40.38;97548.34;22063722;27;20032;-57
2023/03/16 15:30:45;;;;;;;2.45;0.93;;;;;;;15.97;39.60;97532.09;22063976;27;20036;-57
2023/03/16 15:40:50;;;;;;;2.80;1.00;;;;;;;15.70;39.75;97522.84;22063834;27;20095;-56
2023/03/16 15:51:03;;;;;;;1.60;0.85;;;;;;;15.30;40.15;97519.91;22063247;27;20029;-56
2023/03/16 16:01:07;;;;;;;3.33;1.00;;;;;;;15.04;39.71;97515.78;22063679;27;20032;-54
2023/03/16 16:11:16;;;;;;;3.80;1.10;;;;;;;14.78;39.97;97507.31;22063191;27;20021;-57
2023/03/16 16:21:21;;;;;;;1.25;0.77;;;;;;;14.53;39.58;97506.66;22062624;27;20333;-56
2023/03/16 16:31:29;;;;;;;1.58;0.77;;;;;;;14.24;41.64;97496.81;22062695;27;20028;-56
2023/03/16 16:41:34;;;;;;;1.65;0.70;;;;;;;13.78;42.09;97492.09;22062566;27;20043;-56
2023/03/16 16:51:38;;;;;;;1.92;1.00;;;;;;;13.27;42.75;97492.81;22062374;27;20041;-57
2023/03/16 17:01:41;;;;;;;1.60;0.80;;;;;;;12.84;43.77;97482.75;22042703;27;20028;-57
2023/03/16 17:11:44;;;;;;;2.33;1.10;;;;;;;12.36;45.04;97483.53;22062155;27;20029;-57
2023/03/16 17:21:47;;;;;;;4.20;1.48;;;;;;;11.97;45.30;97476.28;22042126;27;20047;-57
2023/03/16 17:31:51;;;;;;;2.30;1.07;;;;;;;11.49;47.19;97480.38;22041332;27;20400;-54
2023/03/16 17:41:56;;;;;;;2.77;1.07;;;;;;;10.93;48.60;97477.97;22061700;27;20107;-56
2023/03/16 17:52:00;;;;;;;2.73;1.30;;;;;;;10.36;49.96;97485.44;22061310;27;20086;-57
2023/03/16 18:02:18;;;;;;;1.70;1.17;;;;;;;9.77;52.63;97474.09;22061366;27;20322;-57
2023/03/16 18:12:23;;;;;;;1.97;1.33;;;;;;;9.32;54.33;97479.19;22042380;27;20047;-57
2023/03/16 18:22:26;;;;;;;1.63;1.20;;;;;;;9.01;56.40;97462.91;22044855;27;20067;-55
2023/03/16 18:32:30;;;;;;;1.90;1.00;;;;;;;8.69;57.19;97466.56;22066072;27;20416;-55
2023/03/16 18:42:33;;;;;;;4.03;1.60;;;;;;;8.23;60.14;97467.06;22045248;27;20047;-55
2023/03/16 18:52:38;;;;;;;4.73;1.90;;;;;;;8.06;61.48;97469.13;22044561;27;20025;-56
2023/03/16 19:02:42;;;;;;;7.53;3.70;;;;;;;7.92;62.79;97479.50;22065023;27;20122;-55
2023/03/16 19:12:45;;;;;;;4.35;2.70;;;;;;;7.70;64.49;97471.53;22065006;27;20389;-57
2023/03/16 19:22:53;;;;;;;3.80;1.80;;;;;;;7.50;65.33;97464.09;22063873;27;20039;-57
2023/03/16 19:32:56;;;;;;;2.37;1.57;;;;;;;7.26;66.71;97456.31;22064001;27;20047;-57
2023/03/16 19:42:59;;;;;;;2.27;1.30;;;;;;;7.08;67.20;97458.28;22063776;27;20040;-56
2023/03/16 19:53:12;;;;;;;1.80;1.03;;;;;;;6.99;66.70;97451.75;22063620;27;20044;-56
2023/03/16 20:03:15;;;;;;;1.90;1.00;;;;;;;6.65;66.15;97446.53;22043828;27;20036;-57
2023/03/16 20:13:18;;;;;;;2.87;1.20;;;;;;;6.35;68.02;97450.44;22063106;27;20032;-57
2023/03/16 20:23:27;;;;;;;8.63;1.90;;;;;;;6.01;72.91;97437.06;22062746;27;20033;-56
2023/03/16 20:33:30;;;;;;;1.90;1.30;;;;;;;5.80;74.60;97432.41;22062858;27;20393;-55
2023/03/16 20:43:35;;;;;;;3.90;1.60;;;;;;;5.79;72.79;97428.12;22043631;27;20032;-57
2023/03/16 20:53:38;;;;;;;2.70;1.60;;;;;;;5.57;77.97;97426.19;22043089;27;20318;-56
2023/03/16 21:03:41;;;;;;;3.00;1.40;;;;;;;5.19;82.48;97419.63;22062984;27;20017;-57
2023/03/16 21:13:43;;;;;;;3.77;1.60;;;;;;;4.73;87.08;97412.38;22062422;27;20029;-56
2023/03/16 21:23:46;;;;;;;2.27;1.37;;;;;;;4.41;91.38;97420.03;22061862;27;20404;-56
2023/03/16 21:33:50;;;;;;;4.07;1.90;;;;;;;4.29;91.90;97417.41;22061925;27;20070;-57
2023/03/16 21:43:53;;;;;;;3.63;1.70;;;;;;;4.37;94.18;97411.69;22061754;27;20028;-55
2023/03/16 21:53:56;;;;;;;4.30;2.07;;;;;;;4.44;95.72;97403.53;22041756;27;20025;-56
2023/03/16 22:04:05;;;;;;;3.17;1.93;;;;;;;4.46;95.10;97388.00;22041728;27;20025;-56
2023/03/16 22:14:08;;;;;;;3.33;1.77;;;;;;;4.46;96.34;97379.19;22041782;27;20035;-57
2023/03/16 22:24:38;;;;;;;4.27;1.77;;;;;;;4.62;94.82;97367.72;22041815;27;20055;-56
2023/03/16 22:34:46;;;;;;;4.03;2.17;;;;;;;4.64;94.97;97346.84;22058511;27;20439;-56
2023/03/16 22:44:48;;;;;;;3.57;2.00;;;;;;;4.78;93.96;97343.88;22061469;27;20078;-54
2023/03/16 22:54:51;;;;;;;3.97;2.20;;;;;;;4.66;95.18;97351.97;22040649;27;20028;-56
2023/03/16 23:04:54;;;;;;;3.30;2.00;;;;;;;4.68;95.28;97349.88;22062440;27;20357;-54
2023/03/16 23:14:57;;;;;;;5.23;2.23;;;;;;;4.58;96.27;97356.66;22064746;27;20111;-55
2023/03/16 23:24:59;;;;;;;3.43;1.90;;;;;;;4.46;96.48;97357.75;22064485;27;20028;-54
2023/03/16 23:35:12;;;;;;;4.60;1.90;;;;;;;4.28;98.30;97337.34;22044112;27;20032;-56
2023/03/16 23:45:14;;;;;;;4.40;2.23;;;;;;;4.09;100.00;97323.31;22044111;27;20350;-57
2023/03/16 23:55:17;;;;;;;4.33;2.03;;;;;;;4.06;100.00;97332.63;22063475;27;20039;-54
